sensor_id;sensor_type;location;lat;lon;timestamp;P1;P2;P0
69222;PMS7003;56514;51.816;-0.026;2023-05-07T00:01:11;2.00;2.00;2.00
69222;PMS7003;56514;51.816;-0.026;2023-05-07T00:03:55;4.75;4.75;3.25
69222;PMS7003;56514;51.816;-0.026;2023-05-07T00:06:40;5.00;5.00;4.25
69222;PMS7003;56514;51.816;-0.026;2023-05-07T00:09:25;5.00;5.00;4.00
69222;PMS7003;56514;51.816;-0.026;2023-05-07T00:12:10;3.50;3.50;2.50
69222;PMS7003;56514;51.816;-0.026;2023-05-07T00:14:57;3.25;3.25;2.75
69222;PMS7003;56514;51.816;-0.026;2023-05-07T00:17:42;2.25;2.25;1.75
69222;PMS7003;56514;51.816;-0.026;2023-05-07T00:20:27;3.75;3.75;2.25
69222;PMS7003;56514;51.816;-0.026;2023-05-07T00:23:11;5.00;5.00;4.00
69222;PMS7003;56514;51.816;-0.026;2023-05-07T00:25:56;5.50;5.50;3.50
69222;PMS7003;56514;51.816;-0.026;2023-05-07T00:28:41;9.25;7.00;5.00
69222;PMS7003;56514;51.816;-0.026;2023-05-07T00:31:26;6.00;6.00;5.00
69222;PMS7003;56514;51.816;-0.026;2023-05-07T00:34:11;5.50;5.50;4.50
69222;PMS7003;56514;51.816;-0.026;2023-05-07T00:36:56;4.75;4.75;3.50
69222;PMS7003;56514;51.816;-0.026;2023-05-07T00:39:41;3.50;3.50;2.50
69222;PMS7003;56514;51.816;-0.026;2023-05-07T00:42:25;4.00;4.00;2.50
69222;PMS7003;56514;51.816;-0.026;2023-05-07T00:45:10;4.50;4.50;4.25
69222;PMS7003;56514;51.816;-0.026;2023-05-07T00:47:57;4.25;4.25;3.00
69222;PMS7003;56514;51.816;-0.026;2023-05-07T00:50:44;5.25;5.25;4.50
69222;PMS7003;56514;51.816;-0.026;2023-05-07T00:53:30;3.00;3.00;1.75
69222;PMS7003;56514;51.816;-0.026;2023-05-07T00:56:15;7.00;7.00;4.50
69222;PMS7003;56514;51.816;-0.026;2023-05-07T00:59:01;2.00;2.00;2.00
69222;PMS7003;56514;51.816;-0.026;2023-05-07T01:01:47;2.00;2.00;1.50
69222;PMS7003;56514;51.816;-0.026;2023-05-07T01:04:32;2.00;2.00;1.75
69222;PMS7003;56514;51.816;-0.026;2023-05-07T01:07:17;2.50;2.50;2.00
69222;PMS7003;56514;51.816;-0.026;2023-05-07T01:10:02;0.75;0.75;0.75
69222;PMS7003;56514;51.816;-0.026;2023-05-07T01:12:49;1.00;1.00;1.00
69222;PMS7003;56514;51.816;-0.026;2023-05-07T01:15:34;3.50;3.50;2.00
69222;PMS7003;56514;51.816;-0.026;2023-05-07T01:18:19;5.50;5.50;5.00
69222;PMS7003;56514;51.816;-0.026;2023-05-07T01:21:05;8.00;8.00;6.50
69222;PMS7003;56514;51.816;-0.026;2023-05-07T01:23:51;8.50;8.50;7.00
69222;PMS7003;56514;51.816;-0.026;2023-05-07T01:26:38;8.00;8.00;5.25
69222;PMS7003;56514;51.816;-0.026;2023-05-07T01:29:24;6.00;6.00;4.50
69222;PMS7003;56514;51.816;-0.026;2023-05-07T01:32:09;9.50;8.50;5.25
69222;PMS7003;56514;51.816;-0.026;2023-05-07T01:34:56;8.75;8.75;6.50
69222;PMS7003;56514;51.816;-0.026;2023-05-07T01:37:43;10.25;10.25;6.00
69222;PMS7003;56514;51.816;-0.026;2023-05-07T01:40:29;6.00;6.00;5.00
69222;PMS7003;56514;51.816;-0.026;2023-05-07T01:43:13;10.00;10.00;5.50
69222;PMS7003;56514;51.816;-0.026;2023-05-07T01:45:58;7.75;7.75;6.00
69222;PMS7003;56514;51.816;-0.026;2023-05-07T01:48:45;8.00;8.00;6.00
69222;PMS7003;56514;51.816;-0.026;2023-05-07T01:51:30;8.50;8.50;7.50
69222;PMS7003;56514;51.816;-0.026;2023-05-07T01:54:16;11.75;11.75;7.00
69222;PMS7003;56514;51.816;-0.026;2023-05-07T01:57:00;10.00;10.00;5.25
69222;PMS7003;56514;51.816;-0.026;2023-05-07T01:59:45;8.75;8.75;7.00
69222;PMS7003;56514;51.816;-0.026;2023-05-07T02:02:30;6.50;6.50;6.00
69222;PMS7003;56514;51.816;-0.026;2023-05-07T02:05:15;6.50;6.50;5.50
69222;PMS7003;56514;51.816;-0.026;2023-05-07T02:08:00;11.00;10.25;5.75
69222;PMS7003;56514;51.816;-0.026;2023-05-07T02:10:45;8.50;8.50;7.50
69222;PMS7003;56514;51.816;-0.026;2023-05-07T02:13:30;8.00;8.00;5.75
69222;PMS7003;56514;51.816;-0.026;2023-05-07T02:16:15;5.75;5.75;4.75
69222;PMS7003;56514;51.816;-0.026;2023-05-07T02:19:01;6.00;6.00;4.25
69222;PMS7003;56514;51.816;-0.026;2023-05-07T02:21:46;6.50;6.50;6.00
69222;PMS7003;56514;51.816;-0.026;2023-05-07T02:24:31;5.50;5.50;4.00
69222;PMS7003;56514;51.816;-0.026;2023-05-07T02:27:16;6.00;6.00;4.00
69222;PMS7003;56514;51.816;-0.026;2023-05-07T02:30:01;7.50;7.50;5.75
69222;PMS7003;56514;51.816;-0.026;2023-05-07T02:32:46;8.00;8.00;6.00
69222;PMS7003;56514;51.816;-0.026;2023-05-07T02:35:30;9.50;9.50;8.00
69222;PMS7003;56514;51.816;-0.026;2023-05-07T02:38:15;8.50;8.50;5.25
69222;PMS7003;56514;51.816;-0.026;2023-05-07T02:41:00;9.25;9.25;6.00
69222;PMS7003;56514;51.816;-0.026;2023-05-07T02:43:45;10.50;10.50;8.00
69222;PMS7003;56514;51.816;-0.026;2023-05-07T02:46:30;13.25;12.00;9.00
69222;PMS7003;56514;51.816;-0.026;2023-05-07T02:49:16;12.00;12.00;9.50
69222;PMS7003;56514;51.816;-0.026;2023-05-07T02:52:00;12.00;12.00;9.00
69222;PMS7003;56514;51.816;-0.026;2023-05-07T02:54:45;9.75;9.75;6.00
69222;PMS7003;56514;51.816;-0.026;2023-05-07T02:57:30;12.00;12.00;9.00
69222;PMS7003;56514;51.816;-0.026;2023-05-07T03:00:16;11.50;11.50;8.75
69222;PMS7003;56514;51.816;-0.026;2023-05-07T03:03:02;10.50;10.25;8.00
69222;PMS7003;56514;51.816;-0.026;2023-05-07T03:05:47;8.75;8.75;6.00
69222;PMS7003;56514;51.816;-0.026;2023-05-07T03:08:32;8.50;8.50;8.00
69222;PMS7003;56514;51.816;-0.026;2023-05-07T03:11:18;8.50;8.50;5.00
69222;PMS7003;56514;51.816;-0.026;2023-05-07T03:14:02;8.75;8.75;7.00
69222;PMS7003;56514;51.816;-0.026;2023-05-07T03:16:48;12.00;12.00;8.25
69222;PMS7003;56514;51.816;-0.026;2023-05-07T03:19:34;8.00;8.00;6.00
69222;PMS7003;56514;51.816;-0.026;2023-05-07T03:22:19;8.25;8.25;6.00
69222;PMS7003;56514;51.816;-0.026;2023-05-07T03:25:05;8.25;8.25;6.00
69222;PMS7003;56514;51.816;-0.026;2023-05-07T03:27:50;5.00;5.00;4.25
69222;PMS7003;56514;51.816;-0.026;2023-05-07T03:30:35;9.25;9.00;6.00
69222;PMS7003;56514;51.816;-0.026;2023-05-07T03:33:20;11.25;11.25;8.00
69222;PMS7003;56514;51.816;-0.026;2023-05-07T03:36:04;6.25;6.25;3.50
69222;PMS7003;56514;51.816;-0.026;2023-05-07T03:38:50;6.00;6.00;4.00
69222;PMS7003;56514;51.816;-0.026;2023-05-07T03:41:35;4.00;4.00;4.00
69222;PMS7003;56514;51.816;-0.026;2023-05-07T03:44:20;6.00;6.00;4.75
69222;PMS7003;56514;51.816;-0.026;2023-05-07T03:47:04;8.50;6.50;6.00
69222;PMS7003;56514;51.816;-0.026;2023-05-07T03:49:49;6.50;6.50;5.50
69222;PMS7003;56514;51.816;-0.026;2023-05-07T03:52:35;8.75;8.75;5.50
69222;PMS7003;56514;51.816;-0.026;2023-05-07T03:55:19;9.50;9.50;7.00
69222;PMS7003;56514;51.816;-0.026;2023-05-07T03:58:04;8.00;8.00;5.75
69222;PMS7003;56514;51.816;-0.026;2023-05-07T04:00:49;8.50;8.50;6.00
69222;PMS7003;56514;51.816;-0.026;2023-05-07T04:03:34;7.25;7.25;5.25
69222;PMS7003;56514;51.816;-0.026;2023-05-07T04:06:18;11.50;11.50;8.00
69222;PMS7003;56514;51.816;-0.026;2023-05-07T04:09:03;11.75;11.75;7.00
69222;PMS7003;56514;51.816;-0.026;2023-05-07T04:11:48;11.50;11.50;6.50
69222;PMS7003;56514;51.816;-0.026;2023-05-07T04:14:32;9.75;8.75;6.00
69222;PMS7003;56514;51.816;-0.026;2023-05-07T04:17:18;8.75;8.75;6.50
69222;PMS7003;56514;51.816;-0.026;2023-05-07T04:20:03;9.25;9.25;8.00
69222;PMS7003;56514;51.816;-0.026;2023-05-07T04:22:48;9.00;8.25;6.00
69222;PMS7003;56514;51.816;-0.026;2023-05-07T04:25:33;9.00;9.00;5.50
69222;PMS7003;56514;51.816;-0.026;2023-05-07T04:28:18;10.00;10.00;5.75
69222;PMS7003;56514;51.816;-0.026;2023-05-07T04:31:03;10.00;10.00;7.00
69222;PMS7003;56514;51.816;-0.026;2023-05-07T04:33:48;11.00;11.00;8.00
69222;PMS7003;56514;51.816;-0.026;2023-05-07T04:36:33;10.00;10.00;8.00
69222;PMS7003;56514;51.816;-0.026;2023-05-07T04:39:18;7.25;7.25;5.00
69222;PMS7003;56514;51.816;-0.026;2023-05-07T04:42:03;8.50;8.50;6.00
69222;PMS7003;56514;51.816;-0.026;2023-05-07T04:44:47;4.75;4.75;2.00
69222;PMS7003;56514;51.816;-0.026;2023-05-07T04:47:37;5.00;5.00;4.25
69222;PMS7003;56514;51.816;-0.026;2023-05-07T04:50:22;5.50;5.50;4.00
69222;PMS7003;56514;51.816;-0.026;2023-05-07T04:53:08;6.00;6.00;5.25
69222;PMS7003;56514;51.816;-0.026;2023-05-07T04:55:55;8.00;8.00;5.25
69222;PMS7003;56514;51.816;-0.026;2023-05-07T04:58:41;5.75;5.75;4.50
69222;PMS7003;56514;51.816;-0.026;2023-05-07T05:01:25;9.25;9.25;8.00
69222;PMS7003;56514;51.816;-0.026;2023-05-07T05:04:10;8.50;8.50;5.00
69222;PMS7003;56514;51.816;-0.026;2023-05-07T05:06:57;8.00;8.00;5.25
69222;PMS7003;56514;51.816;-0.026;2023-05-07T05:09:43;6.00;6.00;4.50
69222;PMS7003;56514;51.816;-0.026;2023-05-07T05:12:28;2.00;2.00;1.75
69222;PMS7003;56514;51.816;-0.026;2023-05-07T05:15:13;5.25;5.25;2.50
69222;PMS7003;56514;51.816;-0.026;2023-05-07T05:17:58;5.00;5.00;4.00
69222;PMS7003;56514;51.816;-0.026;2023-05-07T05:20:43;2.00;2.00;2.00
69222;PMS7003;56514;51.816;-0.026;2023-05-07T05:23:28;5.00;5.00;3.00
69222;PMS7003;56514;51.816;-0.026;2023-05-07T05:26:13;6.00;6.00;5.00
69222;PMS7003;56514;51.816;-0.026;2023-05-07T05:28:58;7.50;7.50;4.25
69222;PMS7003;56514;51.816;-0.026;2023-05-07T05:31:42;3.75;3.75;3.75
69222;PMS7003;56514;51.816;-0.026;2023-05-07T05:34:27;5.00;5.00;3.75
69222;PMS7003;56514;51.816;-0.026;2023-05-07T05:37:12;3.00;3.00;3.00
69222;PMS7003;56514;51.816;-0.026;2023-05-07T05:39:57;5.00;5.00;3.75
69222;PMS7003;56514;51.816;-0.026;2023-05-07T05:42:41;5.50;5.50;5.00
69222;PMS7003;56514;51.816;-0.026;2023-05-07T05:45:26;4.50;4.50;4.25
69222;PMS7003;56514;51.816;-0.026;2023-05-07T05:48:11;3.25;3.25;3.25
69222;PMS7003;56514;51.816;-0.026;2023-05-07T05:50:56;5.00;5.00;5.00
69222;PMS7003;56514;51.816;-0.026;2023-05-07T05:53:41;5.00;5.00;3.50
69222;PMS7003;56514;51.816;-0.026;2023-05-07T05:56:26;4.00;4.00;3.00
69222;PMS7003;56514;51.816;-0.026;2023-05-07T05:59:11;5.00;5.00;3.75
69222;PMS7003;56514;51.816;-0.026;2023-05-07T06:01:56;5.00;5.00;3.50
69222;PMS7003;56514;51.816;-0.026;2023-05-07T06:04:41;5.00;5.00;3.25
69222;PMS7003;56514;51.816;-0.026;2023-05-07T06:07:27;3.00;3.00;3.00
69222;PMS7003;56514;51.816;-0.026;2023-05-07T06:10:12;4.00;4.00;3.25
69222;PMS7003;56514;51.816;-0.026;2023-05-07T06:12:57;2.25;2.25;2.00
69222;PMS7003;56514;51.816;-0.026;2023-05-07T06:15:41;3.00;3.00;2.00
69222;PMS7003;56514;51.816;-0.026;2023-05-07T06:18:26;4.50;4.50;3.00
69222;PMS7003;56514;51.816;-0.026;2023-05-07T06:21:11;4.50;4.50;2.00
69222;PMS7003;56514;51.816;-0.026;2023-05-07T06:23:56;4.00;4.00;3.50
69222;PMS7003;56514;51.816;-0.026;2023-05-07T06:26:41;3.00;3.00;3.00
69222;PMS7003;56514;51.816;-0.026;2023-05-07T06:29:26;4.50;4.50;3.00
69222;PMS7003;56514;51.816;-0.026;2023-05-07T06:32:11;3.50;3.50;3.00
69222;PMS7003;56514;51.816;-0.026;2023-05-07T06:34:57;2.25;2.25;2.25
69222;PMS7003;56514;51.816;-0.026;2023-05-07T06:37:42;2.75;2.75;2.00
69222;PMS7003;56514;51.816;-0.026;2023-05-07T06:40:27;5.00;5.00;3.00
69222;PMS7003;56514;51.816;-0.026;2023-05-07T06:43:11;5.00;5.00;3.00
69222;PMS7003;56514;51.816;-0.026;2023-05-07T06:45:56;5.00;5.00;3.00
69222;PMS7003;56514;51.816;-0.026;2023-05-07T06:48:41;4.50;4.50;3.00
69222;PMS7003;56514;51.816;-0.026;2023-05-07T06:51:26;3.00;3.00;2.75
69222;PMS7003;56514;51.816;-0.026;2023-05-07T06:54:11;4.50;3.00;2.25
69222;PMS7003;56514;51.816;-0.026;2023-05-07T06:56:56;5.00;5.00;3.50
69222;PMS7003;56514;51.816;-0.026;2023-05-07T06:59:41;5.75;5.75;2.75
69222;PMS7003;56514;51.816;-0.026;2023-05-07T07:02:26;5.00;2.00;2.00
69222;PMS7003;56514;51.816;-0.026;2023-05-07T07:05:11;3.50;3.50;2.25
69222;PMS7003;56514;51.816;-0.026;2023-05-07T07:07:57;3.50;3.50;3.50
69222;PMS7003;56514;51.816;-0.026;2023-05-07T07:10:42;5.25;5.25;2.25
69222;PMS7003;56514;51.816;-0.026;2023-05-07T07:13:27;3.00;3.00;3.00
69222;PMS7003;56514;51.816;-0.026;2023-05-07T07:16:11;2.75;2.75;2.00
69222;PMS7003;56514;51.816;-0.026;2023-05-07T07:18:57;1.75;1.75;1.75
69222;PMS7003;56514;51.816;-0.026;2023-05-07T07:21:43;1.75;1.75;1.00
69222;PMS7003;56514;51.816;-0.026;2023-05-07T07:24:29;3.50;3.50;2.00
69222;PMS7003;56514;51.816;-0.026;2023-05-07T07:27:14;2.00;2.00;1.00
69222;PMS7003;56514;51.816;-0.026;2023-05-07T07:29:58;2.50;2.50;2.00
69222;PMS7003;56514;51.816;-0.026;2023-05-07T07:32:43;5.00;5.00;2.50
69222;PMS7003;56514;51.816;-0.026;2023-05-07T07:35:31;3.00;3.00;2.00
69222;PMS7003;56514;51.816;-0.026;2023-05-07T07:38:17;1.00;1.00;1.00
69222;PMS7003;56514;51.816;-0.026;2023-05-07T07:41:01;3.00;3.00;3.00
69222;PMS7003;56514;51.816;-0.026;2023-05-07T07:43:47;2.25;2.25;1.00
69222;PMS7003;56514;51.816;-0.026;2023-05-07T07:46:31;1.00;1.00;1.00
69222;PMS7003;56514;51.816;-0.026;2023-05-07T07:49:16;3.00;3.00;3.00
69222;PMS7003;56514;51.816;-0.026;2023-05-07T07:52:01;3.00;3.00;2.00
69222;PMS7003;56514;51.816;-0.026;2023-05-07T07:54:47;4.00;4.00;2.00
69222;PMS7003;56514;51.816;-0.026;2023-05-07T07:57:31;5.00;5.00;2.00
69222;PMS7003;56514;51.816;-0.026;2023-05-07T08:00:16;3.50;3.50;2.25
69222;PMS7003;56514;51.816;-0.026;2023-05-07T08:03:01;2.00;2.00;2.00
69222;PMS7003;56514;51.816;-0.026;2023-05-07T08:05:47;2.50;2.50;1.50
69222;PMS7003;56514;51.816;-0.026;2023-05-07T08:08:34;4.50;4.50;2.75
69222;PMS7003;56514;51.816;-0.026;2023-05-07T08:11:19;2.25;2.25;1.50
69222;PMS7003;56514;51.816;-0.026;2023-05-07T08:14:04;2.00;2.00;1.25
69222;PMS7003;56514;51.816;-0.026;2023-05-07T08:16:49;2.75;2.75;2.00
69222;PMS7003;56514;51.816;-0.026;2023-05-07T08:19:34;2.00;2.00;1.75
69222;PMS7003;56514;51.816;-0.026;2023-05-07T08:22:19;3.00;3.00;2.50
69222;PMS7003;56514;51.816;-0.026;2023-05-07T08:25:04;2.00;2.00;2.00
69222;PMS7003;56514;51.816;-0.026;2023-05-07T08:27:49;3.00;3.00;2.00
69222;PMS7003;56514;51.816;-0.026;2023-05-07T08:30:34;6.00;6.00;4.50
69222;PMS7003;56514;51.816;-0.026;2023-05-07T08:33:19;4.50;3.25;2.25
69222;PMS7003;56514;51.816;-0.026;2023-05-07T08:36:04;3.00;3.00;2.00
69222;PMS7003;56514;51.816;-0.026;2023-05-07T08:38:49;6.00;6.00;3.00
69222;PMS7003;56514;51.816;-0.026;2023-05-07T08:41:34;5.75;5.75;3.00
69222;PMS7003;56514;51.816;-0.026;2023-05-07T08:44:18;5.00;5.00;3.00
69222;PMS7003;56514;51.816;-0.026;2023-05-07T08:47:07;4.50;4.50;3.00
69222;PMS7003;56514;51.816;-0.026;2023-05-07T08:49:52;3.00;3.00;2.50
69222;PMS7003;56514;51.816;-0.026;2023-05-07T08:52:39;6.00;5.00;3.00
69222;PMS7003;56514;51.816;-0.026;2023-05-07T08:55:25;6.00;5.75;3.00
69222;PMS7003;56514;51.816;-0.026;2023-05-07T08:58:09;7.75;7.75;6.75
69222;PMS7003;56514;51.816;-0.026;2023-05-07T09:00:57;7.75;7.75;5.50
69222;PMS7003;56514;51.816;-0.026;2023-05-07T09:03:45;7.75;7.75;5.75
69222;PMS7003;56514;51.816;-0.026;2023-05-07T09:06:31;6.50;6.50;5.25
69222;PMS7003;56514;51.816;-0.026;2023-05-07T09:09:16;5.25;5.25;4.00
69222;PMS7003;56514;51.816;-0.026;2023-05-07T09:12:05;6.00;6.00;4.50
69222;PMS7003;56514;51.816;-0.026;2023-05-07T09:14:50;8.00;8.00;6.00
69222;PMS7003;56514;51.816;-0.026;2023-05-07T09:17:35;6.00;6.00;5.00
69222;PMS7003;56514;51.816;-0.026;2023-05-07T09:20:19;6.25;6.25;4.00
69222;PMS7003;56514;51.816;-0.026;2023-05-07T09:23:05;6.00;6.00;5.25
69222;PMS7003;56514;51.816;-0.026;2023-05-07T09:25:52;7.50;7.00;5.00
69222;PMS7003;56514;51.816;-0.026;2023-05-07T09:28:45;6.00;6.00;4.75
69222;PMS7003;56514;51.816;-0.026;2023-05-07T09:31:30;5.75;5.75;5.00
69222;PMS7003;56514;51.816;-0.026;2023-05-07T09:34:15;7.00;7.00;4.75
69222;PMS7003;56514;51.816;-0.026;2023-05-07T09:37:01;3.25;3.25;3.00
69222;PMS7003;56514;51.816;-0.026;2023-05-07T09:39:49;7.00;7.00;4.25
69222;PMS7003;56514;51.816;-0.026;2023-05-07T09:42:34;7.00;7.00;4.00
69222;PMS7003;56514;51.816;-0.026;2023-05-07T09:48:07;6.75;6.75;4.50
69222;PMS7003;56514;51.816;-0.026;2023-05-07T09:50:54;8.25;8.25;5.50
69222;PMS7003;56514;51.816;-0.026;2023-05-07T09:53:44;8.25;8.25;6.25
69222;PMS7003;56514;51.816;-0.026;2023-05-07T09:56:30;7.75;7.75;5.50
69222;PMS7003;56514;51.816;-0.026;2023-05-07T09:59:16;7.25;7.25;5.25
69222;PMS7003;56514;51.816;-0.026;2023-05-07T10:02:02;10.75;10.75;6.00
69222;PMS7003;56514;51.816;-0.026;2023-05-07T10:04:48;7.25;7.25;6.50
69222;PMS7003;56514;51.816;-0.026;2023-05-07T10:07:33;7.00;7.00;4.00
69222;PMS7003;56514;51.816;-0.026;2023-05-07T10:10:19;3.75;3.75;3.00
69222;PMS7003;56514;51.816;-0.026;2023-05-07T10:13:05;4.50;4.50;3.75
69222;PMS7003;56514;51.816;-0.026;2023-05-07T10:15:57;5.75;5.75;4.50
69222;PMS7003;56514;51.816;-0.026;2023-05-07T10:18:43;4.50;4.00;2.25
69222;PMS7003;56514;51.816;-0.026;2023-05-07T10:21:28;6.75;6.75;4.00
69222;PMS7003;56514;51.816;-0.026;2023-05-07T10:24:26;8.00;8.00;5.50
69222;PMS7003;56514;51.816;-0.026;2023-05-07T10:27:13;6.25;6.25;4.00
69222;PMS7003;56514;51.816;-0.026;2023-05-07T10:30:06;3.75;3.75;2.75
69222;PMS7003;56514;51.816;-0.026;2023-05-07T10:32:59;5.50;5.50;3.75
69222;PMS7003;56514;51.816;-0.026;2023-05-07T10:35:50;4.00;4.00;4.00
69222;PMS7003;56514;51.816;-0.026;2023-05-07T10:38:35;3.00;3.00;3.00
69222;PMS7003;56514;51.816;-0.026;2023-05-07T10:41:21;3.75;3.75;3.50
69222;PMS7003;56514;51.816;-0.026;2023-05-07T10:44:06;3.50;3.50;3.00
69222;PMS7003;56514;51.816;-0.026;2023-05-07T11:02:15;4.75;4.00;3.00
69222;PMS7003;56514;51.816;-0.026;2023-05-07T11:05:21;2.00;2.00;2.00
69222;PMS7003;56514;51.816;-0.026;2023-05-07T11:08:08;3.00;3.00;2.00
69222;PMS7003;56514;51.816;-0.026;2023-05-07T11:10:56;1.50;1.50;1.50
69222;PMS7003;56514;51.816;-0.026;2023-05-07T11:16:31;3.00;3.00;2.25
69222;PMS7003;56514;51.816;-0.026;2023-05-07T11:19:47;3.00;3.00;2.25
69222;PMS7003;56514;51.816;-0.026;2023-05-07T11:22:40;3.75;3.75;2.75
69222;PMS7003;56514;51.816;-0.026;2023-05-07T11:25:25;3.00;3.00;2.00
69222;PMS7003;56514;51.816;-0.026;2023-05-07T11:28:10;2.00;2.00;2.00
69222;PMS7003;56514;51.816;-0.026;2023-05-07T11:30:58;3.00;3.00;2.00
69222;PMS7003;56514;51.816;-0.026;2023-05-07T11:33:44;1.75;1.75;1.75
69222;PMS7003;56514;51.816;-0.026;2023-05-07T11:36:31;2.00;2.00;2.00
69222;PMS7003;56514;51.816;-0.026;2023-05-07T11:39:24;0.75;0.75;0.00
69222;PMS7003;56514;51.816;-0.026;2023-05-07T11:45:22;3.50;3.50;2.75
69222;PMS7003;56514;51.816;-0.026;2023-05-07T11:48:10;2.50;2.50;2.00
69222;PMS7003;56514;51.816;-0.026;2023-05-07T11:53:43;1.00;1.00;1.00
69222;PMS7003;56514;51.816;-0.026;2023-05-07T11:56:28;0.75;0.75;0.75
69222;PMS7003;56514;51.816;-0.026;2023-05-07T11:59:16;0.00;0.00;0.00
69222;PMS7003;56514;51.816;-0.026;2023-05-07T12:02:02;0.00;0.00;0.00
69222;PMS7003;56514;51.816;-0.026;2023-05-07T12:04:47;1.00;1.00;1.00
69222;PMS7003;56514;51.816;-0.026;2023-05-07T12:07:35;1.00;1.00;1.00
69222;PMS7003;56514;51.816;-0.026;2023-05-07T12:10:20;0.00;0.00;0.00
69222;PMS7003;56514;51.816;-0.026;2023-05-07T12:13:13;1.00;1.00;1.00
69222;PMS7003;56514;51.816;-0.026;2023-05-07T12:16:10;0.50;0.50;0.50
69222;PMS7003;56514;51.816;-0.026;2023-05-07T12:18:58;0.00;0.00;0.00
69222;PMS7003;56514;51.816;-0.026;2023-05-07T12:21:43;1.00;1.00;1.00
69222;PMS7003;56514;51.816;-0.026;2023-05-07T12:24:28;0.25;0.25;0.25
69222;PMS7003;56514;51.816;-0.026;2023-05-07T12:27:13;1.25;1.25;1.25
69222;PMS7003;56514;51.816;-0.026;2023-05-07T12:29:58;1.50;1.50;1.00
69222;PMS7003;56514;51.816;-0.026;2023-05-07T12:32:44;1.50;1.50;1.00
69222;PMS7003;56514;51.816;-0.026;2023-05-07T12:35:31;2.00;2.00;2.00
69222;PMS7003;56514;51.816;-0.026;2023-05-07T12:38:20;1.25;1.25;1.25
69222;PMS7003;56514;51.816;-0.026;2023-05-07T12:41:05;1.00;1.00;1.00
69222;PMS7003;56514;51.816;-0.026;2023-05-07T12:43:51;2.00;2.00;2.00
69222;PMS7003;56514;51.816;-0.026;2023-05-07T12:46:42;1.50;1.50;1.50
69222;PMS7003;56514;51.816;-0.026;2023-05-07T12:49:26;1.50;1.50;1.00
69222;PMS7003;56514;51.816;-0.026;2023-05-07T12:52:12;2.00;2.00;1.50
69222;PMS7003;56514;51.816;-0.026;2023-05-07T12:54:57;1.00;1.00;1.00
69222;PMS7003;56514;51.816;-0.026;2023-05-07T12:57:50;1.00;1.00;1.00
69222;PMS7003;56514;51.816;-0.026;2023-05-07T13:00:36;1.00;1.00;1.00
69222;PMS7003;56514;51.816;-0.026;2023-05-07T13:03:24;1.00;1.00;1.00
69222;PMS7003;56514;51.816;-0.026;2023-05-07T13:06:12;2.75;2.75;2.75
69222;PMS7003;56514;51.816;-0.026;2023-05-07T13:08:57;1.75;1.75;1.00
69222;PMS7003;56514;51.816;-0.026;2023-05-07T13:11:42;1.00;1.00;1.00
69222;PMS7003;56514;51.816;-0.026;2023-05-07T13:14:26;1.00;1.00;1.00
69222;PMS7003;56514;51.816;-0.026;2023-05-07T13:17:11;1.00;1.00;1.00
69222;PMS7003;56514;51.816;-0.026;2023-05-07T13:19:57;1.00;1.00;1.00
69222;PMS7003;56514;51.816;-0.026;2023-05-07T13:22:42;1.00;1.00;1.00
69222;PMS7003;56514;51.816;-0.026;2023-05-07T13:25:27;1.00;1.00;1.00
69222;PMS7003;56514;51.816;-0.026;2023-05-07T13:28:12;0.00;0.00;0.00
69222;PMS7003;56514;51.816;-0.026;2023-05-07T13:30:57;1.25;1.25;1.25
69222;PMS7003;56514;51.816;-0.026;2023-05-07T13:33:41;1.00;1.00;1.00
69222;PMS7003;56514;51.816;-0.026;2023-05-07T13:36:26;1.75;1.75;1.00
69222;PMS7003;56514;51.816;-0.026;2023-05-07T13:39:12;0.60;0.60;0.60
69222;PMS7003;56514;51.816;-0.026;2023-05-07T13:41:57;2.00;2.00;2.00
69222;PMS7003;56514;51.816;-0.026;2023-05-07T13:44:42;0.00;0.00;0.00
69222;PMS7003;56514;51.816;-0.026;2023-05-07T13:47:28;2.00;2.00;2.00
69222;PMS7003;56514;51.816;-0.026;2023-05-07T13:50:13;2.00;2.00;2.00
69222;PMS7003;56514;51.816;-0.026;2023-05-07T13:52:57;1.00;1.00;1.00
69222;PMS7003;56514;51.816;-0.026;2023-05-07T13:55:43;1.75;1.75;1.50
69222;PMS7003;56514;51.816;-0.026;2023-05-07T13:58:29;1.00;1.00;1.00
69222;PMS7003;56514;51.816;-0.026;2023-05-07T14:01:13;1.25;1.25;1.00
69222;PMS7003;56514;51.816;-0.026;2023-05-07T14:03:59;1.50;1.50;1.50
69222;PMS7003;56514;51.816;-0.026;2023-05-07T14:06:44;1.00;1.00;0.00
69222;PMS7003;56514;51.816;-0.026;2023-05-07T14:09:28;2.00;2.00;2.00
69222;PMS7003;56514;51.816;-0.026;2023-05-07T14:12:14;1.00;1.00;1.00
69222;PMS7003;56514;51.816;-0.026;2023-05-07T14:14:59;1.00;1.00;1.00
69222;PMS7003;56514;51.816;-0.026;2023-05-07T14:17:44;1.00;1.00;1.00
69222;PMS7003;56514;51.816;-0.026;2023-05-07T14:20:29;0.00;0.00;0.00
69222;PMS7003;56514;51.816;-0.026;2023-05-07T14:23:15;1.00;1.00;1.00
69222;PMS7003;56514;51.816;-0.026;2023-05-07T14:26:01;1.00;1.00;1.00
69222;PMS7003;56514;51.816;-0.026;2023-05-07T14:28:46;1.00;1.00;1.00
69222;PMS7003;56514;51.816;-0.026;2023-05-07T14:31:31;1.50;1.50;1.50
69222;PMS7003;56514;51.816;-0.026;2023-05-07T14:34:17;1.00;1.00;1.00
69222;PMS7003;56514;51.816;-0.026;2023-05-07T14:37:02;1.00;1.00;0.75
69222;PMS7003;56514;51.816;-0.026;2023-05-07T14:39:47;1.00;1.00;1.00
69222;PMS7003;56514;51.816;-0.026;2023-05-07T14:42:32;1.00;1.00;1.00
69222;PMS7003;56514;51.816;-0.026;2023-05-07T14:45:17;0.75;0.75;0.75
69222;PMS7003;56514;51.816;-0.026;2023-05-07T14:48:02;0.50;0.50;0.50
69222;PMS7003;56514;51.816;-0.026;2023-05-07T14:50:47;0.50;0.50;0.00
69222;PMS7003;56514;51.816;-0.026;2023-05-07T14:53:34;0.00;0.00;0.00
69222;PMS7003;56514;51.816;-0.026;2023-05-07T14:56:18;0.00;0.00;0.00
69222;PMS7003;56514;51.816;-0.026;2023-05-07T14:59:03;1.00;1.00;1.00
69222;PMS7003;56514;51.816;-0.026;2023-05-07T15:01:48;0.50;0.50;0.50
69222;PMS7003;56514;51.816;-0.026;2023-05-07T15:04:33;0.75;0.75;0.75
69222;PMS7003;56514;51.816;-0.026;2023-05-07T15:07:19;0.25;0.25;0.25
69222;PMS7003;56514;51.816;-0.026;2023-05-07T15:10:03;0.50;0.50;0.50
69222;PMS7003;56514;51.816;-0.026;2023-05-07T15:12:49;0.25;0.25;0.00
69222;PMS7003;56514;51.816;-0.026;2023-05-07T15:15:33;0.25;0.25;0.25
69222;PMS7003;56514;51.816;-0.026;2023-05-07T15:18:19;0.00;0.00;0.00
69222;PMS7003;56514;51.816;-0.026;2023-05-07T15:21:03;0.00;0.00;0.00
69222;PMS7003;56514;51.816;-0.026;2023-05-07T15:23:49;0.75;0.75;0.75
69222;PMS7003;56514;51.816;-0.026;2023-05-07T15:26:34;0.00;0.00;0.00
69222;PMS7003;56514;51.816;-0.026;2023-05-07T15:29:19;0.00;0.00;0.00
69222;PMS7003;56514;51.816;-0.026;2023-05-07T15:32:04;0.00;0.00;0.00
69222;PMS7003;56514;51.816;-0.026;2023-05-07T15:34:49;1.00;1.00;1.00
69222;PMS7003;56514;51.816;-0.026;2023-05-07T15:37:34;1.00;1.00;1.00
69222;PMS7003;56514;51.816;-0.026;2023-05-07T15:40:19;1.00;1.00;1.00
69222;PMS7003;56514;51.816;-0.026;2023-05-07T15:43:04;0.75;0.75;0.75
69222;PMS7003;56514;51.816;-0.026;2023-05-07T15:45:49;0.00;0.00;0.00
69222;PMS7003;56514;51.816;-0.026;2023-05-07T15:48:34;0.00;0.00;0.00
69222;PMS7003;56514;51.816;-0.026;2023-05-07T15:51:19;0.00;0.00;0.00
69222;PMS7003;56514;51.816;-0.026;2023-05-07T15:54:04;0.00;0.00;0.00
69222;PMS7003;56514;51.816;-0.026;2023-05-07T15:56:49;0.00;0.00;0.00
69222;PMS7003;56514;51.816;-0.026;2023-05-07T15:59:34;0.00;0.00;0.00
69222;PMS7003;56514;51.816;-0.026;2023-05-07T16:02:19;0.00;0.00;0.00
69222;PMS7003;56514;51.816;-0.026;2023-05-07T16:05:06;0.00;0.00;0.00
69222;PMS7003;56514;51.816;-0.026;2023-05-07T16:07:54;0.00;0.00;0.00
69222;PMS7003;56514;51.816;-0.026;2023-05-07T16:10:40;0.00;0.00;0.00
69222;PMS7003;56514;51.816;-0.026;2023-05-07T16:13:25;0.00;0.00;0.00
69222;PMS7003;56514;51.816;-0.026;2023-05-07T16:16:10;0.00;0.00;0.00
69222;PMS7003;56514;51.816;-0.026;2023-05-07T16:18:56;0.00;0.00;0.00
69222;PMS7003;56514;51.816;-0.026;2023-05-07T16:21:41;0.00;0.00;0.00